Time;durP1;ratioP1;P1;durP2;ratioP2;P2;SDS_P1;SDS_P2;PMS_P1;PMS_P2;Temp;Humidity;BMP_temperature;BMP_pressure;BME280_temperature;BME280_humidity;BME280_pressure;Samples;Min_cycle;Max_cycle;Signal;HPM_P1;HPM_P2
2023/05/17 00:00:11;;;;;;;9.27;5.57;;;;;;;14.79;78.98;92823.34;523961;28;850;-60
2023/05/17 00:00:26;;;;;;;9.98;5.40;;;;;;;14.81;78.69;92824.19;524072;28;860;-60
2023/05/17 00:00:42;;;;;;;10.15;5.22;;;;;;;14.83;78.57;92821.59;524020;28;792;-60
2023/05/17 00:00:57;;;;;;;9.70;5.33;;;;;;;14.85;78.51;92818.19;524054;28;769;-60
2023/05/17 00:01:12;;;;;;;12.03;6.10;;;;;;;14.86;78.38;92816.88;523830;28;904;-60
2023/05/17 00:01:28;;;;;;;11.40;6.05;;;;;;;14.90;78.50;92822.72;524130;28;793;-60
2023/05/17 00:01:43;;;;;;;10.80;5.17;;;;;;;14.88;78.59;92812.19;523918;28;895;-60
2023/05/17 00:01:59;;;;;;;10.02;4.95;;;;;;;14.91;78.76;92824.16;524084;28;835;-60
2023/05/17 00:02:14;;;;;;;9.80;5.30;;;;;;;14.90;78.58;92820.66;523948;28;958;-60
2023/05/17 00:02:30;;;;;;;12.27;5.70;;;;;;;14.92;78.68;92823.56;524132;28;828;-60
2023/05/17 00:02:45;;;;;;;10.67;5.40;;;;;;;14.95;78.68;92830.00;523931;28;855;-60
2023/05/17 00:03:04;;;;;;;9.13;5.30;;;;;;;14.96;78.55;92820.34;524020;28;895;-59
2023/05/17 00:03:19;;;;;;;10.25;5.40;;;;;;;14.99;78.65;92831.00;523973;28;867;-59
2023/05/17 00:03:34;;;;;;;9.07;5.30;;;;;;;14.99;78.52;92824.72;524033;28;857;-60
2023/05/17 00:03:53;;;;;;;9.20;5.80;;;;;;;14.99;78.58;92817.09;524033;28;910;-60
2023/05/17 00:04:08;;;;;;;10.60;5.78;;;;;;;14.98;78.76;92821.22;524045;28;860;-60
2023/05/17 00:04:23;;;;;;;9.73;5.40;;;;;;;14.99;78.66;92830.25;524032;28;823;-60
2023/05/17 00:04:39;;;;;;;9.67;5.80;;;;;;;14.98;78.77;92821.22;524012;28;982;-60
2023/05/17 00:04:54;;;;;;;11.45;6.05;;;;;;;15.00;78.62;92826.91;523952;28;871;-60
2023/05/17 00:05:13;;;;;;;11.20;5.67;;;;;;;15.00;78.62;92817.84;523966;28;800;-60
2023/05/17 00:05:28;;;;;;;9.43;5.65;;;;;;;15.01;78.65;92817.25;523993;28;939;-60
2023/05/17 00:05:44;;;;;;;9.97;5.50;;;;;;;15.03;78.66;92819.41;524015;28;853;-60
2023/05/17 00:05:59;;;;;;;10.27;5.85;;;;;;;15.05;78.69;92819.56;525829;28;1134;-60
2023/05/17 00:06:14;;;;;;;11.37;5.83;;;;;;;15.06;78.65;92818.25;526062;28;880;-60
2023/05/17 00:06:30;;;;;;;12.33;5.83;;;;;;;15.07;78.82;92814.84;526201;28;769;-60
2023/05/17 00:06:45;;;;;;;12.20;6.03;;;;;;;15.08;78.77;92810.03;526028;28;860;-59
2023/05/17 00:07:02;;;;;;;11.43;6.17;;;;;;;15.10;78.87;92812.94;526138;28;832;-60
2023/05/17 00:07:17;;;;;;;9.95;5.97;;;;;;;15.12;79.03;92815.84;526139;28;832;-60
2023/05/17 00:07:32;;;;;;;10.45;5.80;;;;;;;15.10;79.02;92819.25;526063;28;889;-59
2023/05/17 00:07:48;;;;;;;12.67;6.27;;;;;;;15.11;79.03;92809.59;526166;28;779;-60
2023/05/17 00:08:04;;;;;;;13.00;6.40;;;;;;;15.14;79.12;92816.72;526068;28;820;-60
2023/05/17 00:08:19;;;;;;;10.10;6.33;;;;;;;15.13;78.91;92809.72;526080;28;945;-59
2023/05/17 00:08:35;;;;;;;11.07;6.35;;;;;;;15.15;78.97;92811.91;526061;28;1616;-60
2023/05/17 00:08:50;;;;;;;13.47;6.70;;;;;;;15.16;78.85;92813.34;526187;28;788;-60
2023/05/17 00:09:06;;;;;;;14.63;6.60;;;;;;;15.18;79.00;92819.06;525960;28;891;-60
2023/05/17 00:09:21;;;;;;;11.93;5.90;;;;;;;15.17;79.02;92818.34;526139;28;1183;-60
2023/05/17 00:09:39;;;;;;;9.87;5.63;;;;;;;15.17;78.96;92815.56;526113;28;942;-60
2023/05/17 00:09:55;;;;;;;10.93;7.00;;;;;;;15.19;78.90;92812.91;526021;28;1130;-60
2023/05/17 00:10:10;;;;;;;14.80;7.57;;;;;;;15.19;78.76;92814.94;526123;28;845;-60
2023/05/17 00:10:25;;;;;;;17.23;7.22;;;;;;;15.21;78.71;92820.66;526165;28;816;-60
2023/05/17 00:10:42;;;;;;;13.57;6.73;;;;;;;15.22;78.65;92819.34;526070;28;1372;-60
2023/05/17 00:10:57;;;;;;;11.07;6.43;;;;;;;15.23;78.49;92820.03;526210;28;983;-60
2023/05/17 00:11:13;;;;;;;11.77;6.63;;;;;;;15.14;78.65;92802.81;526028;28;870;-60
2023/05/17 00:11:28;;;;;;;12.87;6.30;;;;;;;15.25;78.72;92820.91;525488;28;1355;-60
2023/05/17 00:11:43;;;;;;;12.70;6.30;;;;;;;15.25;78.74;92811.81;525643;28;1971;-60
2023/05/17 00:11:59;;;;;;;11.82;6.40;;;;;;;15.25;78.81;92811.81;525811;28;792;-60
2023/05/17 00:12:15;;;;;;;10.80;6.10;;;;;;;15.26;78.72;92814.03;525875;28;1103;-60
2023/05/17 00:12:30;;;;;;;11.97;6.40;;;;;;;15.26;78.68;92811.25;525994;28;843;-59
2023/05/17 00:12:46;;;;;;;14.68;7.00;;;;;;;15.29;78.66;92818.41;525976;28;772;-60
2023/05/17 00:13:02;;;;;;;15.13;7.00;;;;;;;15.29;78.56;92812.13;525914;28;865;-60
2023/05/17 00:13:17;;;;;;;12.68;6.82;;;;;;;15.29;78.60;92817.69;525942;28;817;-60
2023/05/17 00:13:33;;;;;;;12.35;6.40;;;;;;;15.28;78.49;92816.22;526037;28;935;-60
2023/05/17 00:13:48;;;;;;;10.60;6.13;;;;;;;15.28;78.50;92816.22;526079;28;855;-59
2023/05/17 00:14:03;;;;;;;11.57;6.70;;;;;;;15.27;78.42;92823.81;526099;28;771;-60
2023/05/17 00:14:19;;;;;;;11.05;6.50;;;;;;;15.25;78.54;92815.34;526076;28;1571;-60
2023/05/17 00:14:34;;;;;;;10.30;5.93;;;;;;;15.27;78.75;92826.59;526093;28;828;-60
2023/05/17 00:14:50;;;;;;;9.40;5.90;;;;;;;15.26;78.80;92827.22;526081;28;818;-59
2023/05/17 00:15:05;;;;;;;10.13;6.05;;;;;;;15.22;78.70;92824.16;526017;28;845;-60
2023/05/17 00:15:21;;;;;;;11.47;6.40;;;;;;;15.17;79.07;92823.91;526109;28;1043;-60
2023/05/17 00:15:36;;;;;;;11.80;6.53;;;;;;;15.18;78.99;92819.78;526067;28;1043;-60
2023/05/17 00:15:51;;;;;;;11.47;6.30;;;;;;;15.18;79.36;92822.56;526050;28;1065;-60
2023/05/17 00:16:07;;;;;;;10.80;6.33;;;;;;;15.09;79.23;92809.44;526124;28;870;-60
2023/05/17 00:16:22;;;;;;;9.02;5.88;;;;;;;15.18;78.97;92825.34;526045;28;833;-60
2023/05/17 00:16:38;;;;;;;8.67;5.90;;;;;;;15.17;79.16;92818.34;526129;28;882;-60
2023/05/17 00:16:53;;;;;;;12.00;6.85;;;;;;;15.17;78.92;92818.34;524841;28;1252;-61
2023/05/17 00:17:08;;;;;;;14.13;6.90;;;;;;;15.18;78.99;92827.41;524038;28;807;-60
2023/05/17 00:17:24;;;;;;;12.13;6.57;;;;;;;15.17;79.18;92823.16;523937;28;884;-60
2023/05/17 00:17:40;;;;;;;10.45;6.38;;;;;;;15.14;79.32;92824.34;524044;28;852;-60
2023/05/17 00:17:56;;;;;;;11.13;6.50;;;;;;;15.11;79.30;92820.72;523977;28;851;-60
2023/05/17 00:18:11;;;;;;;14.20;7.40;;;;;;;15.06;79.42;92823.81;524060;28;800;-60
2023/05/17 00:18:26;;;;;;;14.73;7.30;;;;;;;15.02;79.54;92829.81;523970;28;962;-60
2023/05/17 00:18:42;;;;;;;14.23;6.80;;;;;;;14.92;80.13;92831.19;524037;28;808;-60
2023/05/17 00:18:57;;;;;;;15.47;7.73;;;;;;;14.85;80.55;92827.28;523942;28;930;-60
2023/05/17 00:19:12;;;;;;;12.13;7.57;;;;;;;14.83;80.73;92834.75;523931;28;836;-59
2023/05/17 00:19:28;;;;;;;10.67;6.80;;;;;;;14.82;80.89;92822.16;524061;28;791;-60
2023/05/17 00:19:43;;;;;;;11.07;6.90;;;;;;;14.80;80.91;92824.78;523981;28;832;-60
2023/05/17 00:19:58;;;;;;;12.88;7.30;;;;;;;14.81;80.90;92832.53;524009;28;961;-60
2023/05/17 00:20:14;;;;;;;12.53;7.40;;;;;;;14.74;81.27;92827.16;524008;28;789;-60
2023/05/17 00:20:29;;;;;;;11.23;7.30;;;;;;;14.61;81.87;92828.38;524046;28;871;-60
2023/05/17 00:20:44;;;;;;;13.63;7.32;;;;;;;14.50;82.27;92826.22;523941;28;808;-61
2023/05/17 00:21:00;;;;;;;14.93;7.37;;;;;;;14.41;82.65;92826.97;524014;28;810;-59
2023/05/17 00:21:15;;;;;;;13.60;6.97;;;;;;;14.41;82.84;92829.75;523957;28;827;-59
2023/05/17 00:21:31;;;;;;;13.57;7.15;;;;;;;14.43;82.97;92818.78;523963;28;891;-60
2023/05/17 00:21:46;;;;;;;11.90;7.27;;;;;;;14.47;82.99;92829.47;523960;28;883;-60
2023/05/17 00:22:01;;;;;;;10.40;6.70;;;;;;;14.51;82.70;92830.44;521674;28;825;-60
2023/05/17 00:22:17;;;;;;;13.02;6.70;;;;;;;14.52;82.61;92825.63;521831;28;829;-60
2023/05/17 00:22:32;;;;;;;14.97;6.70;;;;;;;14.55;82.77;92838.34;521773;28;792;-60
2023/05/17 00:22:48;;;;;;;14.68;7.25;;;;;;;14.54;82.87;92832.06;521784;28;825;-60
2023/05/17 00:23:03;;;;;;;13.23;7.97;;;;;;;14.56;82.71;92831.47;521644;28;918;-60
2023/05/17 00:23:21;;;;;;;15.07;7.80;;;;;;;14.61;82.57;92824.88;521859;28;834;-59
2023/05/17 00:23:37;;;;;;;15.38;7.75;;;;;;;14.61;82.33;92831.16;521743;28;848;-59
2023/05/17 00:23:52;;;;;;;12.27;7.90;;;;;;;14.64;82.45;92829.97;522447;28;911;-60
2023/05/17 00:24:08;;;;;;;11.53;8.33;;;;;;;14.66;82.26;92829.41;524016;28;865;-60
2023/05/17 00:24:23;;;;;;;13.30;8.27;;;;;;;14.67;82.33;92833.63;523950;28;840;-59
2023/05/17 00:24:39;;;;;;;13.20;7.80;;;;;;;14.63;82.19;92822.97;524087;28;831;-60
2023/05/17 00:24:54;;;;;;;13.93;8.03;;;;;;;14.69;82.03;92823.38;523960;28;844;-60
2023/05/17 00:25:09;;;;;;;18.20;8.87;;;;;;;14.66;81.92;92834.97;523926;28;996;-60
2023/05/17 00:25:25;;;;;;;18.20;8.77;;;;;;;14.64;81.86;92827.19;524017;28;772;-60
2023/05/17 00:25:40;;;;;;;13.17;8.43;;;;;;;14.65;81.99;92825.16;523923;28;820;-60
2023/05/17 00:25:55;;;;;;;13.70;8.27;;;;;;;14.64;81.86;92826.47;523998;28;808;-60
2023/05/17 00:26:12;;;;;;;12.98;8.20;;;;;;;14.65;81.85;92825.88;523973;28;1191;-60
2023/05/17 00:26:27;;;;;;;12.27;7.95;;;;;;;14.65;81.88;92839.78;523992;28;911;-60
2023/05/17 00:26:43;;;;;;;13.75;7.85;;;;;;;14.66;81.84;92827.31;523927;28;941;-60
2023/05/17 00:26:58;;;;;;;15.70;8.40;;;;;;;14.66;81.77;92830.09;524085;28;769;-60
2023/05/17 00:27:13;;;;;;;15.80;9.00;;;;;;;14.68;81.73;92837.88;523866;28;911;-60
2023/05/17 00:27:29;;;;;;;14.35;9.27;;;;;;;14.68;81.76;92835.09;524055;28;915;-60
2023/05/17 00:27:44;;;;;;;15.00;9.37;;;;;;;14.69;81.80;92830.97;523959;28;836;-60
2023/05/17 00:28:00;;;;;;;15.93;9.37;;;;;;;14.71;81.72;92839.44;524083;28;753;-60
2023/05/17 00:28:15;;;;;;;13.75;9.07;;;;;;;14.73;81.69;92836.81;524008;28;953;-60
2023/05/17 00:28:30;;;;;;;14.23;8.57;;;;;;;14.73;81.61;92834.03;524028;28;871;-60
2023/05/17 00:28:46;;;;;;;18.53;8.43;;;;;;;14.70;81.68;92841.53;524044;28;840;-59
2023/05/17 00:29:02;;;;;;;16.25;8.15;;;;;;;14.71;81.59;92840.19;523980;28;848;-60
2023/05/17 00:29:17;;;;;;;13.45;8.00;;;;;;;14.70;81.59;92833.19;523955;28;1756;-60
2023/05/17 00:29:33;;;;;;;13.00;8.13;;;;;;;14.73;81.42;92836.81;524045;28;835;-60
2023/05/17 00:29:48;;;;;;;12.40;8.10;;;;;;;14.75;81.55;92839.75;524033;28;860;-60
2023/05/17 00:30:04;;;;;;;12.68;8.07;;;;;;;14.74;81.68;92843.84;523917;28;852;-60
2023/05/17 00:30:20;;;;;;;12.73;8.40;;;;;;;14.76;81.58;92833.59;524114;28;895;-60
2023/05/17 00:30:35;;;;;;;12.30;8.60;;;;;;;14.77;81.64;92851.72;523985;28;818;-60
2023/05/17 00:30:50;;;;;;;12.17;7.83;;;;;;;14.79;81.61;92849.06;523667;28;1093;-60
2023/05/17 00:31:06;;;;;;;13.47;7.33;;;;;;;14.79;81.67;92845.59;523976;28;861;-60
2023/05/17 00:31:21;;;;;;;13.07;7.90;;;;;;;14.80;81.41;92853.31;523983;28;883;-60
2023/05/17 00:31:36;;;;;;;11.67;8.47;;;;;;;14.80;81.60;92842.22;524000;28;866;-60
2023/05/17 00:31:52;;;;;;;12.53;8.63;;;;;;;14.78;81.38;92835.78;523962;28;1918;-59
2023/05/17 00:32:07;;;;;;;13.35;9.00;;;;;;;14.78;81.52;92847.63;523971;28;871;-59
2023/05/17 00:32:23;;;;;;;12.87;8.93;;;;;;;14.80;81.45;92847.75;524033;28;883;-60
2023/05/17 00:32:41;;;;;;;12.57;8.07;;;;;;;14.78;81.42;92844.13;524072;28;851;-60
2023/05/17 00:32:56;;;;;;;12.90;7.97;;;;;;;14.78;81.53;92849.66;524019;28;848;-60
2023/05/17 00:33:12;;;;;;;11.60;8.10;;;;;;;14.76;81.41;92844.72;523882;28;847;-60
2023/05/17 00:33:27;;;;;;;13.17;8.40;;;;;;;14.73;81.67;92848.66;524099;28;835;-60
2023/05/17 00:33:43;;;;;;;14.50;8.10;;;;;;;14.71;81.49;92845.75;524048;28;1631;-60
2023/05/17 00:33:58;;;;;;;13.77;7.50;;;;;;;14.71;81.65;92842.22;526166;28;934;-60
2023/05/17 00:34:13;;;;;;;13.98;8.13;;;;;;;14.73;81.65;92843.09;526049;28;864;-60
2023/05/17 00:34:29;;;;;;;13.63;8.95;;;;;;;14.73;81.64;92845.16;526126;28;1120;-60
2023/05/17 00:34:44;;;;;;;12.50;9.03;;;;;;;14.74;81.58;92844.56;526093;28;772;-60
2023/05/17 00:34:59;;;;;;;12.17;8.47;;;;;;;14.74;81.58;92843.84;526175;28;793;-61
2023/05/17 00:35:15;;;;;;;11.95;8.30;;;;;;;14.75;81.62;92842.53;525961;28;899;-60
2023/05/17 00:35:30;;;;;;;11.47;8.33;;;;;;;14.75;81.57;92837.69;526120;28;804;-60
2023/05/17 00:35:45;;;;;;;11.33;8.10;;;;;;;14.75;81.48;92831.41;526074;28;887;-61
2023/05/17 00:36:01;;;;;;;12.20;8.07;;;;;;;14.76;81.61;92843.97;526029;28;859;-60
2023/05/17 00:36:16;;;;;;;12.27;7.87;;;;;;;14.77;81.56;92834.34;526166;28;844;-59
2023/05/17 00:36:31;;;;;;;13.23;7.97;;;;;;;14.77;81.59;92832.25;526065;28;878;-59
2023/05/17 00:36:47;;;;;;;13.60;8.27;;;;;;;14.77;81.60;92843.38;526121;28;792;-60
2023/05/17 00:37:02;;;;;;;15.57;8.63;;;;;;;14.74;81.51;92841.06;526020;28;882;-60
2023/05/17 00:37:17;;;;;;;17.07;8.70;;;;;;;14.74;81.59;92836.25;526129;28;800;-61
2023/05/17 00:37:33;;;;;;;13.38;8.07;;;;;;;14.74;81.56;92833.47;526109;28;971;-60
2023/05/17 00:37:48;;;;;;;14.20;8.37;;;;;;;14.75;81.39;92834.19;526119;28;879;-60
2023/05/17 00:38:03;;;;;;;16.07;7.70;;;;;;;14.74;81.48;92839.03;526125;28;852;-60
2023/05/17 00:38:19;;;;;;;13.85;7.63;;;;;;;14.73;81.52;92837.53;526156;28;940;-59
2023/05/17 00:38:34;;;;;;;12.10;8.17;;;;;;;14.75;81.44;92834.19;526066;28;871;-60
2023/05/17 00:38:50;;;;;;;13.15;7.90;;;;;;;14.74;81.51;92841.78;526091;28;926;-61
2023/05/17 00:39:05;;;;;;;12.83;8.00;;;;;;;14.72;81.42;92836.09;525973;28;1050;-60
2023/05/17 00:39:20;;;;;;;12.87;7.70;;;;;;;14.71;81.44;92840.19;526043;28;928;-60
2023/05/17 00:39:36;;;;;;;11.93;7.32;;;;;;;14.72;81.50;92841.66;526116;28;851;-60
2023/05/17 00:39:52;;;;;;;11.90;7.97;;;;;;;14.70;81.68;92849.84;526086;28;765;-60
2023/05/17 00:40:09;;;;;;;12.93;8.07;;;;;;;14.70;81.75;92840.78;526158;28;853;-60
2023/05/17 00:40:24;;;;;;;12.38;8.02;;;;;;;14.68;81.98;92841.38;526010;28;923;-60
2023/05/17 00:40:39;;;;;;;13.83;7.97;;;;;;;14.67;81.88;92839.91;526206;28;827;-61
2023/05/17 00:40:55;;;;;;;13.70;7.60;;;;;;;14.69;81.90;92848.38;526044;28;876;-60
2023/05/17 00:41:11;;;;;;;12.90;7.83;;;;;;;14.68;81.89;92835.84;526008;28;934;-60
2023/05/17 00:41:27;;;;;;;11.88;8.13;;;;;;;14.70;81.93;92841.53;526123;28;913;-60
2023/05/17 00:41:42;;;;;;;13.00;8.27;;;;;;;14.71;81.94;92848.53;526066;28;819;-60
2023/05/17 00:42:00;;;;;;;13.50;7.77;;;;;;;14.72;81.86;92844.44;526028;28;1000;-61
2023/05/17 00:42:17;;;;;;;14.13;7.88;;;;;;;14.73;81.69;92848.66;526146;28;820;-60
2023/05/17 00:42:32;;;;;;;16.42;8.82;;;;;;;14.72;81.63;92857.59;526030;28;957;-60
2023/05/17 00:42:48;;;;;;;15.37;9.27;;;;;;;14.71;81.55;92848.53;526118;28;871;-60
2023/05/17 00:43:03;;;;;;;12.13;8.30;;;;;;;14.72;81.71;92861.09;525973;28;946;-60
2023/05/17 00:43:19;;;;;;;14.27;8.03;;;;;;;14.73;81.77;92851.44;526109;28;898;-60
2023/05/17 00:43:34;;;;;;;15.23;8.32;;;;;;;14.71;81.68;92856.13;526012;28;976;-60
2023/05/17 00:43:50;;;;;;;14.17;8.50;;;;;;;14.67;81.77;92856.59;525939;28;890;-60
2023/05/17 00:44:06;;;;;;;16.40;9.23;;;;;;;14.65;81.82;92855.72;523770;28;832;-60
2023/05/17 00:44:21;;;;;;;14.37;9.43;;;;;;;14.64;81.64;92852.19;523859;28;864;-59
2023/05/17 00:44:36;;;;;;;13.27;9.27;;;;;;;14.63;81.84;92856.31;523849;28;973;-60
2023/05/17 00:44:52;;;;;;;12.57;9.10;;;;;;;14.58;81.97;92854.56;523891;28;899;-60
2023/05/17 00:45:08;;;;;;;14.00;9.23;;;;;;;14.55;82.07;92852.25;523694;28;868;-59
2023/05/17 00:45:23;;;;;;;16.20;9.63;;;;;;;14.54;82.09;92848.00;523842;28;777;-60
2023/05/17 00:45:38;;;;;;;21.55;11.18;;;;;;;14.54;82.36;92848.00;524236;28;924;-60
2023/05/17 00:45:54;;;;;;;20.70;11.33;;;;;;;14.55;82.45;92849.47;525888;28;859;-60
2023/05/17 00:46:09;;;;;;;17.17;10.47;;;;;;;14.57;82.29;92860.72;526119;28;795;-60
2023/05/17 00:46:25;;;;;;;16.60;10.38;;;;;;;14.56;82.33;92848.13;526136;28;793;-61
2023/05/17 00:46:40;;;;;;;16.43;10.10;;;;;;;14.55;82.42;92850.19;525927;28;1313;-60
2023/05/17 00:46:58;;;;;;;17.67;10.02;;;;;;;14.56;82.47;92850.91;526063;28;851;-60
2023/05/17 00:47:13;;;;;;;15.40;9.43;;;;;;;14.54;82.50;92848.72;525921;28;886;-60
2023/05/17 00:47:29;;;;;;;14.37;9.47;;;;;;;14.44;82.64;92840.41;526131;28;915;-60
2023/05/17 00:47:44;;;;;;;13.87;9.53;;;;;;;14.41;82.91;92847.16;526073;28;956;-60
2023/05/17 00:48:00;;;;;;;14.50;9.85;;;;;;;14.40;83.05;92850.53;526132;28;823;-60
2023/05/17 00:48:15;;;;;;;14.20;10.20;;;;;;;14.41;83.12;92846.41;525431;28;1164;-60
2023/05/17 00:48:31;;;;;;;14.27;10.48;;;;;;;14.43;83.06;92846.56;523994;28;856;-60
2023/05/17 00:48:46;;;;;;;13.53;10.00;;;;;;;14.45;83.18;92846.69;523962;28;836;-61
2023/05/17 00:49:02;;;;;;;11.63;9.47;;;;;;;14.45;83.04;92852.25;523784;28;837;-60
2023/05/17 00:49:18;;;;;;;13.23;10.10;;;;;;;14.46;83.15;92845.41;521722;28;869;-60
2023/05/17 00:49:33;;;;;;;14.65;10.13;;;;;;;14.46;83.01;92850.94;519667;28;893;-60
2023/05/17 00:49:49;;;;;;;14.70;9.88;;;;;;;14.42;83.15;92836.78;519724;28;782;-60
2023/05/17 00:50:05;;;;;;;15.70;10.47;;;;;;;14.49;83.05;92852.53;519646;28;856;-60
2023/05/17 00:50:20;;;;;;;19.83;11.55;;;;;;;14.50;83.07;92856.03;519694;28;874;-61
2023/05/17 00:50:36;;;;;;;19.13;11.07;;;;;;;14.47;82.89;92855.16;519742;28;816;-60
2023/05/17 00:50:52;;;;;;;14.50;10.30;;;;;;;14.46;83.08;92850.94;520157;28;856;-60
2023/05/17 00:51:08;;;;;;;16.27;10.60;;;;;;;14.46;83.00;92853.72;520273;28;908;-60
2023/05/17 00:51:23;;;;;;;17.58;10.80;;;;;;;14.43;83.08;92850.06;521730;28;820;-60
2023/05/17 00:51:39;;;;;;;14.70;10.03;;;;;;;14.39;82.86;92851.84;522262;28;848;-60
2023/05/17 00:51:55;;;;;;;13.32;9.38;;;;;;;14.35;82.95;92846.75;523681;28;1906;-60
2023/05/17 00:52:10;;;;;;;15.68;9.88;;;;;;;14.37;82.98;92851.69;521843;28;832;-60
2023/05/17 00:52:26;;;;;;;17.23;10.70;;;;;;;14.35;82.95;92843.97;519599;28;821;-59
2023/05/17 00:52:41;;;;;;;16.90;10.88;;;;;;;14.36;83.04;92850.97;519719;28;850;-60
2023/05/17 00:52:56;;;;;;;16.20;10.60;;;;;;;14.37;83.16;92849.66;518000;28;1073;-60
2023/05/17 00:53:15;;;;;;;17.90;11.23;;;;;;;14.37;83.09;92848.91;517545;28;868;-60
2023/05/17 00:53:30;;;;;;;17.38;10.88;;;;;;;14.37;83.13;92844.09;515642;28;900;-60
2023/05/17 00:53:46;;;;;;;17.73;10.33;;;;;;;14.37;83.07;92848.91;515678;28;821;-60
2023/05/17 00:54:03;;;;;;;16.95;10.27;;;;;;;14.36;83.09;92845.41;516381;28;948;-60
2023/05/17 00:54:18;;;;;;;18.80;10.70;;;;;;;14.40;83.05;92856.09;516555;28;870;-60
2023/05/17 00:54:33;;;;;;;18.42;9.73;;;;;;;14.37;83.20;92848.91;517558;28;957;-59
2023/05/17 00:54:49;;;;;;;14.90;9.63;;;;;;;14.37;83.29;92854.47;518660;28;808;-60
2023/05/17 00:55:05;;;;;;;15.02;9.90;;;;;;;14.31;83.30;92849.22;518518;28;782;-60
2023/05/17 00:55:20;;;;;;;15.20;9.20;;;;;;;14.26;83.67;92853.00;518668;28;874;-60
2023/05/17 00:55:36;;;;;;;13.57;9.17;;;;;;;14.24;83.91;92852.88;519608;28;856;-60
2023/05/17 00:55:53;;;;;;;14.38;9.27;;;;;;;14.23;84.00;92854.16;519728;28;833;-60
2023/05/17 00:56:09;;;;;;;19.45;9.88;;;;;;;14.17;84.17;92844.69;518232;28;1138;-60
2023/05/17 00:56:24;;;;;;;15.37;9.90;;;;;;;14.14;84.38;92848.66;519656;28;903;-60
2023/05/17 00:56:40;;;;;;;13.68;9.75;;;;;;;14.10;84.58;92851.13;519720;28;1004;-60
2023/05/17 00:56:56;;;;;;;15.83;9.97;;;;;;;14.08;84.87;92848.94;520196;28;969;-61
2023/05/17 00:57:12;;;;;;;15.38;9.73;;;;;;;14.08;84.96;92842.63;521632;28;849;-60
2023/05/17 00:57:28;;;;;;;15.43;9.53;;;;;;;14.06;85.06;92845.28;521829;28;798;-60
2023/05/17 00:57:43;;;;;;;21.65;9.88;;;;;;;14.01;85.21;92852.59;519689;28;830;-60
2023/05/17 00:57:58;;;;;;;23.08;9.80;;;;;;;13.97;85.46;92843.25;518449;28;852;-60
2023/05/17 00:58:14;;;;;;;15.93;9.20;;;;;;;13.91;85.66;92842.81;519399;28;1190;-61
2023/05/17 00:58:30;;;;;;;14.85;9.90;;;;;;;13.86;85.99;92849.41;517775;28;908;-60
2023/05/17 00:58:45;;;;;;;16.20;10.27;;;;;;;13.81;86.37;92851.16;517557;28;959;-60
2023/05/17 00:59:03;;;;;;;14.50;10.05;;;;;;;13.77;86.63;92845.31;515682;28;802;-60
2023/05/17 00:59:20;;;;;;;17.40;10.30;;;;;;;13.76;87.04;92851.44;515592;28;855;-60
2023/05/17 00:59:36;;;;;;;17.00;9.82;;;;;;;13.77;87.25;92859.19;516450;28;888;-60
2023/05/17 00:59:51;;;;;;;17.30;9.50;;;;;;;13.75;87.45;92847.22;520645;28;905;-60
2023/05/17 01:00:07;;;;;;;17.40;9.63;;;;;;;13.80;87.44;92854.50;520678;28;895;-60
2023/05/17 01:00:23;;;;;;;15.73;9.55;;;;;;;13.81;87.50;92851.16;522747;28;836;-60
2023/05/17 01:00:39;;;;;;;14.93;9.80;;;;;;;13.85;87.37;92850.69;523873;28;944;-59
2023/05/17 01:00:54;;;;;;;15.38;9.98;;;;;;;13.87;87.27;92856.41;522752;28;1086;-59
2023/05/17 01:01:10;;;;;;;15.18;9.48;;;;;;;13.89;87.17;92854.50;523790;28;1002;-60
2023/05/17 01:01:25;;;;;;;14.70;9.82;;;;;;;13.90;87.07;92855.97;523792;28;1046;-59
2023/05/17 01:01:43;;;;;;;16.77;10.40;;;;;;;13.94;86.98;92850.72;521193;28;903;-60
2023/05/17 01:01:59;;;;;;;15.82;9.95;;;;;;;13.86;86.91;92844.56;520488;28;987;-60
2023/05/17 01:02:14;;;;;;;15.15;9.20;;;;;;;13.89;87.00;92848.94;521653;28;1559;-60
2023/05/17 01:02:30;;;;;;;14.13;8.80;;;;;;;13.84;87.10;92855.50;521850;28;836;-60
2023/05/17 01:02:47;;;;;;;12.80;9.07;;;;;;;13.83;87.39;92851.28;522291;28;824;-61
2023/05/17 01:03:02;;;;;;;18.35;10.25;;;;;;;13.82;87.23;92852.59;523747;28;844;-60
2023/05/17 01:03:18;;;;;;;20.35;10.30;;;;;;;13.83;87.37;92856.84;523833;28;840;-60
2023/05/17 01:03:34;;;;;;;17.30;9.83;;;;;;;13.83;87.46;92858.88;523861;28;782;-60
2023/05/17 01:03:50;;;;;;;16.67;9.68;;;;;;;13.77;87.57;92847.34;523987;28;975;-60
2023/05/17 01:04:05;;;;;;;15.13;9.55;;;;;;;13.71;87.88;92860.78;523835;28;881;-60
2023/05/17 01:04:21;;;;;;;13.20;9.73;;;;;;;13.72;88.05;92853.91;523796;28;903;-59
2023/05/17 01:04:37;;;;;;;13.43;9.73;;;;;;;13.74;88.13;92854.06;523798;28;773;-61
2023/05/17 01:04:53;;;;;;;16.23;9.57;;;;;;;13.75;88.22;92849.97;523771;28;876;-60
2023/05/17 01:05:08;;;;;;;18.02;9.48;;;;;;;13.78;88.14;92857.13;521717;28;806;-60
2023/05/17 01:05:27;;;;;;;18.43;9.07;;;;;;;13.80;88.10;92854.50;521723;28;777;-59
2023/05/17 01:05:42;;;;;;;17.38;9.30;;;;;;;13.83;87.97;92856.09;521633;28;1044;-59
2023/05/17 01:05:58;;;;;;;15.07;9.63;;;;;;;13.86;87.91;92858.44;523338;28;1113;-60
2023/05/17 01:06:13;;;;;;;15.15;9.27;;;;;;;13.88;87.69;92852.31;523813;28;813;-60
2023/05/17 01:06:29;;;;;;;14.73;9.27;;;;;;;13.91;87.65;92856.69;523770;28;974;-59
2023/05/17 01:06:44;;;;;;;13.73;9.13;;;;;;;13.93;87.43;92857.56;523723;28;841;-60
2023/05/17 01:07:00;;;;;;;14.37;8.93;;;;;;;13.94;87.22;92858.28;520882;28;852;-60
2023/05/17 01:07:16;;;;;;;14.73;8.95;;;;;;;13.92;87.10;92864.44;519578;28;861;-60
2023/05/17 01:07:32;;;;;;;13.98;9.00;;;;;;;13.94;87.18;92861.06;519651;28;1735;-60
2023/05/17 01:07:47;;;;;;;13.60;9.43;;;;;;;13.91;86.90;92853.91;520154;28;884;-59
2023/05/17 01:08:02;;;;;;;13.97;9.50;;;;;;;13.91;86.85;92854.66;521661;28;975;-60
2023/05/17 01:08:18;;;;;;;13.60;9.37;;;;;;;13.98;86.88;92866.91;521766;28;1634;-60
2023/05/17 01:08:33;;;;;;;13.57;9.30;;;;;;;13.97;86.92;92865.47;521740;28;808;-60
2023/05/17 01:08:49;;;;;;;13.10;9.40;;;;;;;13.99;86.70;92860.06;521821;28;833;-60
2023/05/17 01:09:04;;;;;;;17.53;9.30;;;;;;;13.99;86.68;92863.53;521837;28;1110;-60
2023/05/17 01:09:20;;;;;;;19.55;8.90;;;;;;;13.97;86.71;92857.13;521809;28;847;-60
2023/05/17 01:09:36;;;;;;;15.60;8.82;;;;;;;14.00;86.64;92858.72;521703;28;1100;-60
2023/05/17 01:09:51;;;;;;;14.93;9.50;;;;;;;14.02;86.56;92867.19;521693;28;937;-60
2023/05/17 01:10:07;;;;;;;14.10;9.93;;;;;;;14.03;86.57;92865.91;523851;28;1091;-60
2023/05/17 01:10:36;;;;;;;14.10;10.07;;;;;;;14.03;86.46;92860.34;521732;28;884;-60
2023/05/17 01:11:00;;;;;;;18.20;10.02;;;;;;;14.04;86.39;92864.56;521721;28;1117;-60
2023/05/17 01:11:28;;;;;;;19.88;9.80;;;;;;;14.06;86.33;92867.47;523023;28;814;-59
2023/05/17 01:12:00;;;;;;;16.03;9.50;;;;;;;13.89;86.40;92846.19;521564;28;904;-60
2023/05/17 01:12:19;;;;;;;16.08;8.70;;;;;;;14.03;86.45;92863.84;519638;28;861;-60
2023/05/17 01:12:54;;;;;;;13.55;9.20;;;;;;;13.99;86.63;92868.38;519690;28;848;-59
2023/05/17 01:13:15;;;;;;;15.05;9.48;;;;;;;13.92;86.95;92870.00;519625;28;889;-60
2023/05/17 01:13:52;;;;;;;12.30;8.60;;;;;;;13.98;86.94;92875.25;515791;28;869;-60
2023/05/17 01:14:14;;;;;;;13.07;8.55;;;;;;;14.00;86.94;92875.38;517383;28;2185;-60
2023/05/17 01:14:51;;;;;;;13.20;8.75;;;;;;;14.01;86.74;92874.78;515638;28;919;-61
2023/05/17 01:15:06;;;;;;;13.80;10.02;;;;;;;14.00;86.94;92875.38;516959;28;1706;-60
2023/05/17 01:15:25;;;;;;;12.65;9.30;;;;;;;14.00;87.03;92878.16;519255;28;1146;-60
2023/05/17 01:15:46;;;;;;;16.50;9.30;;;;;;;14.00;87.13;92878.16;521671;28;829;-60
2023/05/17 01:16:11;;;;;;;14.65;9.63;;;;;;;13.98;87.07;92866.91;519749;28;861;-60
2023/05/17 01:16:31;;;;;;;13.98;9.80;;;;;;;13.97;87.45;92874.50;521160;28;2416;-60
2023/05/17 01:16:58;;;;;;;14.27;10.43;;;;;;;13.93;88.06;92877.00;521618;28;1210;-60
2023/05/17 01:17:39;;;;;;;18.05;12.23;;;;;;;13.89;88.92;92871.16;521612;28;884;-60
2023/05/17 01:18:27;;;;;;;17.75;11.98;;;;;;;13.92;89.64;92875.53;520513;28;860;-59
2023/05/17 01:19:02;;;;;;;19.25;11.60;;;;;;;13.98;89.75;92872.47;519525;28;958;-60
2023/05/17 01:19:29;;;;;;;15.55;11.85;;;;;;;14.02;89.74;92872.75;519595;28;1693;-60